sensor_id;sensor_type;location;lat;lon;timestamp;P1;durP1;ratioP1;P2;durP2;ratioP2
7929;SDS011;4010;42.698;23.124;2023-07-29T00:01:12;3.93;;;2.97;;
7929;SDS011;4010;42.698;23.124;2023-07-29T00:03:39;3.13;;;2.77;;
7929;SDS011;4010;42.698;23.124;2023-07-29T00:06:07;3.17;;;2.87;;
7929;SDS011;4010;42.698;23.124;2023-07-29T00:08:34;2.90;;;2.60;;
7929;SDS011;4010;42.698;23.124;2023-07-29T00:11:00;2.73;;;2.53;;
7929;SDS011;4010;42.698;23.124;2023-07-29T00:13:27;3.30;;;3.00;;
7929;SDS011;4010;42.698;23.124;2023-07-29T00:15:54;3.67;;;3.03;;
7929;SDS011;4010;42.698;23.124;2023-07-29T00:18:21;3.07;;;2.77;;
7929;SDS011;4010;42.698;23.124;2023-07-29T00:20:48;3.00;;;2.80;;
7929;SDS011;4010;42.698;23.124;2023-07-29T00:23:16;3.40;;;3.10;;
7929;SDS011;4010;42.698;23.124;2023-07-29T00:25:44;3.40;;;3.10;;
7929;SDS011;4010;42.698;23.124;2023-07-29T00:28:11;3.47;;;3.17;;
7929;SDS011;4010;42.698;23.124;2023-07-29T00:30:37;3.67;;;3.20;;
7929;SDS011;4010;42.698;23.124;2023-07-29T00:33:04;3.60;;;3.00;;
7929;SDS011;4010;42.698;23.124;2023-07-29T00:35:31;3.20;;;2.90;;
7929;SDS011;4010;42.698;23.124;2023-07-29T00:37:57;3.10;;;2.90;;
7929;SDS011;4010;42.698;23.124;2023-07-29T00:40:25;3.37;;;3.10;;
7929;SDS011;4010;42.698;23.124;2023-07-29T00:42:54;3.20;;;2.90;;
7929;SDS011;4010;42.698;23.124;2023-07-29T00:45:21;3.40;;;3.10;;
7929;SDS011;4010;42.698;23.124;2023-07-29T00:47:49;3.70;;;3.40;;
7929;SDS011;4010;42.698;23.124;2023-07-29T00:50:15;5.30;;;3.50;;
7929;SDS011;4010;42.698;23.124;2023-07-29T00:52:42;6.67;;;3.13;;
7929;SDS011;4010;42.698;23.124;2023-07-29T00:55:09;3.70;;;3.40;;
7929;SDS011;4010;42.698;23.124;2023-07-29T00:57:37;4.43;;;3.43;;
7929;SDS011;4010;42.698;23.124;2023-07-29T01:00:05;3.60;;;3.30;;
7929;SDS011;4010;42.698;23.124;2023-07-29T01:02:33;4.57;;;3.70;;
7929;SDS011;4010;42.698;23.124;2023-07-29T01:05:01;3.50;;;3.20;;
7929;SDS011;4010;42.698;23.124;2023-07-29T01:07:30;4.03;;;3.70;;
7929;SDS011;4010;42.698;23.124;2023-07-29T01:10:02;4.53;;;3.30;;
7929;SDS011;4010;42.698;23.124;2023-07-29T01:12:35;3.80;;;3.50;;
7929;SDS011;4010;42.698;23.124;2023-07-29T01:15:10;4.00;;;3.70;;
7929;SDS011;4010;42.698;23.124;2023-07-29T01:17:42;3.70;;;3.40;;
7929;SDS011;4010;42.698;23.124;2023-07-29T01:20:13;4.00;;;3.50;;
7929;SDS011;4010;42.698;23.124;2023-07-29T01:22:41;5.20;;;3.30;;
7929;SDS011;4010;42.698;23.124;2023-07-29T01:25:09;5.43;;;3.83;;
7929;SDS011;4010;42.698;23.124;2023-07-29T01:27:36;3.80;;;3.50;;
7929;SDS011;4010;42.698;23.124;2023-07-29T01:30:03;3.87;;;3.57;;
7929;SDS011;4010;42.698;23.124;2023-07-29T01:32:32;4.00;;;3.70;;
7929;SDS011;4010;42.698;23.124;2023-07-29T01:35:07;4.43;;;3.30;;
7929;SDS011;4010;42.698;23.124;2023-07-29T01:37:48;3.90;;;3.60;;
7929;SDS011;4010;42.698;23.124;2023-07-29T01:40:18;4.10;;;3.60;;
7929;SDS011;4010;42.698;23.124;2023-07-29T01:42:47;4.20;;;3.40;;
7929;SDS011;4010;42.698;23.124;2023-07-29T01:45:15;8.57;;;3.90;;
7929;SDS011;4010;42.698;23.124;2023-07-29T01:47:41;5.30;;;3.93;;
7929;SDS011;4010;42.698;23.124;2023-07-29T01:50:08;3.80;;;3.50;;
7929;SDS011;4010;42.698;23.124;2023-07-29T01:52:35;6.47;;;3.80;;
7929;SDS011;4010;42.698;23.124;2023-07-29T01:55:02;7.40;;;3.90;;
7929;SDS011;4010;42.698;23.124;2023-07-29T01:57:31;4.37;;;3.50;;
7929;SDS011;4010;42.698;23.124;2023-07-29T01:59:57;7.00;;;4.00;;
7929;SDS011;4010;42.698;23.124;2023-07-29T02:02:24;4.53;;;4.00;;
7929;SDS011;4010;42.698;23.124;2023-07-29T02:04:50;4.87;;;3.70;;
7929;SDS011;4010;42.698;23.124;2023-07-29T02:07:17;4.93;;;4.07;;
7929;SDS011;4010;42.698;23.124;2023-07-29T02:09:45;6.83;;;3.83;;
7929;SDS011;4010;42.698;23.124;2023-07-29T02:12:11;3.53;;;3.23;;
7929;SDS011;4010;42.698;23.124;2023-07-29T02:14:39;4.00;;;3.70;;
7929;SDS011;4010;42.698;23.124;2023-07-29T02:17:06;6.27;;;3.80;;
7929;SDS011;4010;42.698;23.124;2023-07-29T02:19:33;5.80;;;3.83;;
7929;SDS011;4010;42.698;23.124;2023-07-29T02:22:00;4.40;;;3.60;;
7929;SDS011;4010;42.698;23.124;2023-07-29T02:24:27;3.83;;;3.53;;
7929;SDS011;4010;42.698;23.124;2023-07-29T02:26:54;5.43;;;3.57;;
7929;SDS011;4010;42.698;23.124;2023-07-29T02:29:20;3.70;;;3.40;;
7929;SDS011;4010;42.698;23.124;2023-07-29T02:31:49;4.00;;;3.57;;
7929;SDS011;4010;42.698;23.124;2023-07-29T02:34:15;5.10;;;4.03;;
7929;SDS011;4010;42.698;23.124;2023-07-29T02:36:42;4.77;;;3.77;;
7929;SDS011;4010;42.698;23.124;2023-07-29T02:39:09;6.63;;;3.70;;
7929;SDS011;4010;42.698;23.124;2023-07-29T02:41:35;4.53;;;4.10;;
7929;SDS011;4010;42.698;23.124;2023-07-29T02:44:02;3.93;;;3.63;;
7929;SDS011;4010;42.698;23.124;2023-07-29T02:46:29;4.40;;;4.00;;
7929;SDS011;4010;42.698;23.124;2023-07-29T02:48:57;4.40;;;3.87;;
7929;SDS011;4010;42.698;23.124;2023-07-29T02:51:24;7.07;;;4.20;;
7929;SDS011;4010;42.698;23.124;2023-07-29T02:53:51;5.10;;;3.90;;
7929;SDS011;4010;42.698;23.124;2023-07-29T02:56:17;5.67;;;3.60;;
7929;SDS011;4010;42.698;23.124;2023-07-29T02:58:44;4.23;;;3.83;;
7929;SDS011;4010;42.698;23.124;2023-07-29T03:01:10;5.07;;;3.77;;
7929;SDS011;4010;42.698;23.124;2023-07-29T03:03:37;4.00;;;3.70;;
7929;SDS011;4010;42.698;23.124;2023-07-29T03:06:05;5.20;;;3.50;;
7929;SDS011;4010;42.698;23.124;2023-07-29T03:08:33;5.30;;;3.90;;
7929;SDS011;4010;42.698;23.124;2023-07-29T03:11:04;4.33;;;3.93;;
7929;SDS011;4010;42.698;23.124;2023-07-29T03:13:32;4.43;;;3.80;;
7929;SDS011;4010;42.698;23.124;2023-07-29T03:16:04;3.80;;;3.50;;
7929;SDS011;4010;42.698;23.124;2023-07-29T03:18:31;3.80;;;3.50;;
7929;SDS011;4010;42.698;23.124;2023-07-29T03:20:57;3.93;;;3.60;;
7929;SDS011;4010;42.698;23.124;2023-07-29T03:23:25;4.00;;;3.67;;
7929;SDS011;4010;42.698;23.124;2023-07-29T03:25:54;4.90;;;3.90;;
7929;SDS011;4010;42.698;23.124;2023-07-29T03:28:21;4.23;;;3.83;;
7929;SDS011;4010;42.698;23.124;2023-07-29T03:30:49;5.20;;;3.80;;
7929;SDS011;4010;42.698;23.124;2023-07-29T03:33:15;3.97;;;3.67;;
7929;SDS011;4010;42.698;23.124;2023-07-29T03:35:42;4.93;;;4.00;;
7929;SDS011;4010;42.698;23.124;2023-07-29T03:38:09;4.80;;;3.80;;
7929;SDS011;4010;42.698;23.124;2023-07-29T03:40:37;4.50;;;3.73;;
7929;SDS011;4010;42.698;23.124;2023-07-29T03:43:04;3.60;;;3.30;;
7929;SDS011;4010;42.698;23.124;2023-07-29T03:45:31;6.63;;;3.87;;
7929;SDS011;4010;42.698;23.124;2023-07-29T03:47:58;4.30;;;3.77;;
7929;SDS011;4010;42.698;23.124;2023-07-29T03:50:25;4.40;;;4.00;;
7929;SDS011;4010;42.698;23.124;2023-07-29T03:52:52;7.23;;;3.80;;
7929;SDS011;4010;42.698;23.124;2023-07-29T03:55:18;3.90;;;3.60;;
7929;SDS011;4010;42.698;23.124;2023-07-29T03:57:47;3.97;;;2.87;;
7929;SDS011;4010;42.698;23.124;2023-07-29T04:00:14;3.70;;;3.10;;
7929;SDS011;4010;42.698;23.124;2023-07-29T04:02:41;5.57;;;2.93;;
7929;SDS011;4010;42.698;23.124;2023-07-29T04:05:07;12.60;;;3.07;;
7929;SDS011;4010;42.698;23.124;2023-07-29T04:07:35;3.23;;;2.93;;
7929;SDS011;4010;42.698;23.124;2023-07-29T04:10:02;2.73;;;2.53;;
7929;SDS011;4010;42.698;23.124;2023-07-29T04:12:30;3.57;;;2.93;;
7929;SDS011;4010;42.698;23.124;2023-07-29T04:14:58;3.33;;;2.43;;
7929;SDS011;4010;42.698;23.124;2023-07-29T04:17:25;2.50;;;2.30;;
7929;SDS011;4010;42.698;23.124;2023-07-29T04:19:51;5.47;;;2.60;;
7929;SDS011;4010;42.698;23.124;2023-07-29T04:22:18;2.87;;;2.57;;
7929;SDS011;4010;42.698;23.124;2023-07-29T04:24:45;5.20;;;2.90;;
7929;SDS011;4010;42.698;23.124;2023-07-29T04:27:11;3.03;;;2.43;;
7929;SDS011;4010;42.698;23.124;2023-07-29T04:29:38;2.90;;;2.57;;
7929;SDS011;4010;42.698;23.124;2023-07-29T04:32:06;3.10;;;2.80;;
7929;SDS011;4010;42.698;23.124;2023-07-29T04:34:33;5.20;;;2.73;;
7929;SDS011;4010;42.698;23.124;2023-07-29T04:37:00;5.43;;;2.80;;
7929;SDS011;4010;42.698;23.124;2023-07-29T04:39:27;4.63;;;3.03;;
7929;SDS011;4010;42.698;23.124;2023-07-29T04:41:53;4.10;;;2.80;;
7929;SDS011;4010;42.698;23.124;2023-07-29T04:44:20;5.83;;;2.87;;
7929;SDS011;4010;42.698;23.124;2023-07-29T04:46:47;2.90;;;2.70;;
7929;SDS011;4010;42.698;23.124;2023-07-29T04:49:15;3.87;;;3.00;;
7929;SDS011;4010;42.698;23.124;2023-07-29T04:51:41;3.70;;;3.40;;
7929;SDS011;4010;42.698;23.124;2023-07-29T04:54:08;4.53;;;3.30;;
7929;SDS011;4010;42.698;23.124;2023-07-29T04:56:34;3.70;;;3.40;;
7929;SDS011;4010;42.698;23.124;2023-07-29T04:59:01;9.73;;;3.10;;
7929;SDS011;4010;42.698;23.124;2023-07-29T05:01:28;3.53;;;3.23;;
7929;SDS011;4010;42.698;23.124;2023-07-29T05:03:54;3.17;;;2.97;;
7929;SDS011;4010;42.698;23.124;2023-07-29T05:06:22;4.07;;;2.90;;
7929;SDS011;4010;42.698;23.124;2023-07-29T05:08:49;3.97;;;3.57;;
7929;SDS011;4010;42.698;23.124;2023-07-29T05:11:16;5.20;;;3.30;;
7929;SDS011;4010;42.698;23.124;2023-07-29T05:13:42;3.10;;;2.80;;
7929;SDS011;4010;42.698;23.124;2023-07-29T05:16:10;4.43;;;3.40;;
7929;SDS011;4010;42.698;23.124;2023-07-29T05:18:36;4.20;;;3.33;;
7929;SDS011;4010;42.698;23.124;2023-07-29T05:21:03;3.70;;;3.33;;
7929;SDS011;4010;42.698;23.124;2023-07-29T05:23:31;3.80;;;3.50;;
7929;SDS011;4010;42.698;23.124;2023-07-29T05:25:57;3.93;;;3.43;;
7929;SDS011;4010;42.698;23.124;2023-07-29T05:28:24;3.87;;;3.50;;
7929;SDS011;4010;42.698;23.124;2023-07-29T05:30:51;4.30;;;3.47;;
7929;SDS011;4010;42.698;23.124;2023-07-29T05:33:18;3.53;;;3.23;;
7929;SDS011;4010;42.698;23.124;2023-07-29T05:35:44;3.43;;;3.17;;
7929;SDS011;4010;42.698;23.124;2023-07-29T05:38:12;5.33;;;3.23;;
7929;SDS011;4010;42.698;23.124;2023-07-29T05:40:40;5.30;;;3.90;;
7929;SDS011;4010;42.698;23.124;2023-07-29T05:43:07;4.47;;;3.70;;
7929;SDS011;4010;42.698;23.124;2023-07-29T05:45:33;4.60;;;2.97;;
7929;SDS011;4010;42.698;23.124;2023-07-29T05:48:00;3.73;;;3.37;;
7929;SDS011;4010;42.698;23.124;2023-07-29T05:50:26;3.27;;;3.07;;
7929;SDS011;4010;42.698;23.124;2023-07-29T05:52:53;4.13;;;3.70;;
7929;SDS011;4010;42.698;23.124;2023-07-29T05:55:20;4.90;;;3.53;;
7929;SDS011;4010;42.698;23.124;2023-07-29T05:57:48;3.47;;;3.17;;
7929;SDS011;4010;42.698;23.124;2023-07-29T06:00:15;3.80;;;3.40;;
7929;SDS011;4010;42.698;23.124;2023-07-29T06:02:42;4.13;;;3.57;;
7929;SDS011;4010;42.698;23.124;2023-07-29T06:05:08;3.80;;;3.50;;
7929;SDS011;4010;42.698;23.124;2023-07-29T06:07:35;3.40;;;3.10;;
7929;SDS011;4010;42.698;23.124;2023-07-29T06:10:02;3.83;;;3.30;;
7929;SDS011;4010;42.698;23.124;2023-07-29T06:12:28;3.60;;;3.30;;
7929;SDS011;4010;42.698;23.124;2023-07-29T06:14:56;3.73;;;3.50;;
7929;SDS011;4010;42.698;23.124;2023-07-29T06:17:23;5.27;;;3.60;;
7929;SDS011;4010;42.698;23.124;2023-07-29T06:19:50;3.80;;;3.50;;
7929;SDS011;4010;42.698;23.124;2023-07-29T06:22:17;4.13;;;3.40;;
7929;SDS011;4010;42.698;23.124;2023-07-29T06:24:43;3.77;;;3.40;;
7929;SDS011;4010;42.698;23.124;2023-07-29T06:27:10;4.73;;;3.47;;
7929;SDS011;4010;42.698;23.124;2023-07-29T06:29:36;4.63;;;3.50;;
7929;SDS011;4010;42.698;23.124;2023-07-29T06:32:05;4.47;;;3.63;;
7929;SDS011;4010;42.698;23.124;2023-07-29T06:34:32;6.10;;;3.53;;
7929;SDS011;4010;42.698;23.124;2023-07-29T06:36:59;5.77;;;3.40;;
7929;SDS011;4010;42.698;23.124;2023-07-29T06:39:25;3.60;;;3.30;;
7929;SDS011;4010;42.698;23.124;2023-07-29T06:41:52;3.70;;;2.83;;
7929;SDS011;4010;42.698;23.124;2023-07-29T06:44:20;3.70;;;3.30;;
7929;SDS011;4010;42.698;23.124;2023-07-29T06:46:46;4.47;;;3.10;;
7929;SDS011;4010;42.698;23.124;2023-07-29T06:49:14;3.77;;;3.03;;
7929;SDS011;4010;42.698;23.124;2023-07-29T06:51:41;4.13;;;3.20;;
7929;SDS011;4010;42.698;23.124;2023-07-29T06:54:08;3.30;;;3.10;;
7929;SDS011;4010;42.698;23.124;2023-07-29T06:56:34;3.20;;;3.00;;
7929;SDS011;4010;42.698;23.124;2023-07-29T06:59:01;3.57;;;3.27;;
7929;SDS011;4010;42.698;23.124;2023-07-29T07:01:27;4.30;;;3.30;;
7929;SDS011;4010;42.698;23.124;2023-07-29T07:03:54;3.40;;;3.10;;
7929;SDS011;4010;42.698;23.124;2023-07-29T07:06:24;3.60;;;3.27;;
7929;SDS011;4010;42.698;23.124;2023-07-29T07:08:51;6.43;;;3.33;;
7929;SDS011;4010;42.698;23.124;2023-07-29T07:11:18;3.50;;;3.20;;
7929;SDS011;4010;42.698;23.124;2023-07-29T07:13:44;3.33;;;3.03;;
7929;SDS011;4010;42.698;23.124;2023-07-29T07:16:11;6.33;;;3.40;;
7929;SDS011;4010;42.698;23.124;2023-07-29T07:18:38;3.60;;;3.30;;
7929;SDS011;4010;42.698;23.124;2023-07-29T07:21:05;4.57;;;3.10;;
7929;SDS011;4010;42.698;23.124;2023-07-29T07:23:33;5.20;;;3.07;;
7929;SDS011;4010;42.698;23.124;2023-07-29T07:25:59;3.50;;;3.13;;
7929;SDS011;4010;42.698;23.124;2023-07-29T07:28:26;5.60;;;2.87;;
7929;SDS011;4010;42.698;23.124;2023-07-29T07:30:53;3.50;;;3.20;;
7929;SDS011;4010;42.698;23.124;2023-07-29T07:33:20;4.80;;;3.07;;
7929;SDS011;4010;42.698;23.124;2023-07-29T07:35:47;3.43;;;3.13;;
7929;SDS011;4010;42.698;23.124;2023-07-29T07:38:14;6.77;;;3.37;;
7929;SDS011;4010;42.698;23.124;2023-07-29T07:40:42;4.83;;;3.00;;
7929;SDS011;4010;42.698;23.124;2023-07-29T07:43:18;3.43;;;3.20;;
7929;SDS011;4010;42.698;23.124;2023-07-29T07:45:44;3.83;;;3.10;;
7929;SDS011;4010;42.698;23.124;2023-07-29T07:48:11;4.03;;;3.10;;
7929;SDS011;4010;42.698;23.124;2023-07-29T07:50:38;3.27;;;3.00;;
7929;SDS011;4010;42.698;23.124;2023-07-29T07:53:04;5.27;;;3.20;;
7929;SDS011;4010;42.698;23.124;2023-07-29T07:55:31;4.60;;;3.20;;
7929;SDS011;4010;42.698;23.124;2023-07-29T07:57:59;4.50;;;3.30;;
7929;SDS011;4010;42.698;23.124;2023-07-29T08:00:26;4.13;;;3.17;;
7929;SDS011;4010;42.698;23.124;2023-07-29T08:02:52;5.30;;;3.20;;
7929;SDS011;4010;42.698;23.124;2023-07-29T08:05:19;3.73;;;3.30;;
7929;SDS011;4010;42.698;23.124;2023-07-29T08:07:46;4.33;;;2.97;;
7929;SDS011;4010;42.698;23.124;2023-07-29T08:10:12;3.43;;;2.90;;
7929;SDS011;4010;42.698;23.124;2023-07-29T08:12:39;3.37;;;3.03;;
7929;SDS011;4010;42.698;23.124;2023-07-29T08:15:07;3.80;;;2.93;;
7929;SDS011;4010;42.698;23.124;2023-07-29T08:17:34;3.73;;;3.43;;
7929;SDS011;4010;42.698;23.124;2023-07-29T08:20:01;5.00;;;3.20;;
7929;SDS011;4010;42.698;23.124;2023-07-29T08:22:28;3.80;;;3.03;;
7929;SDS011;4010;42.698;23.124;2023-07-29T08:24:54;4.73;;;3.00;;
7929;SDS011;4010;42.698;23.124;2023-07-29T08:27:21;4.77;;;3.10;;
7929;SDS011;4010;42.698;23.124;2023-07-29T08:29:48;3.40;;;3.03;;
7929;SDS011;4010;42.698;23.124;2023-07-29T08:32:16;3.40;;;3.00;;
7929;SDS011;4010;42.698;23.124;2023-07-29T08:34:43;3.07;;;2.70;;
7929;SDS011;4010;42.698;23.124;2023-07-29T08:37:09;2.63;;;2.43;;
7929;SDS011;4010;42.698;23.124;2023-07-29T08:39:36;3.53;;;2.10;;
7929;SDS011;4010;42.698;23.124;2023-07-29T08:42:03;3.83;;;2.23;;
7929;SDS011;4010;42.698;23.124;2023-07-29T08:44:35;2.77;;;2.20;;
7929;SDS011;4010;42.698;23.124;2023-07-29T08:47:06;2.30;;;2.10;;
7929;SDS011;4010;42.698;23.124;2023-07-29T08:49:34;2.37;;;2.10;;
7929;SDS011;4010;42.698;23.124;2023-07-29T08:52:02;2.10;;;2.00;;
7929;SDS011;4010;42.698;23.124;2023-07-29T08:54:30;3.57;;;1.90;;
7929;SDS011;4010;42.698;23.124;2023-07-29T08:56:57;3.37;;;2.30;;
7929;SDS011;4010;42.698;23.124;2023-07-29T08:59:25;3.90;;;2.23;;
7929;SDS011;4010;42.698;23.124;2023-07-29T09:01:52;3.47;;;2.93;;
7929;SDS011;4010;42.698;23.124;2023-07-29T09:04:20;3.07;;;1.90;;
7929;SDS011;4010;42.698;23.124;2023-07-29T09:06:50;1.90;;;1.80;;
7929;SDS011;4010;42.698;23.124;2023-07-29T09:09:17;1.93;;;1.70;;
7929;SDS011;4010;42.698;23.124;2023-07-29T09:11:43;3.53;;;1.90;;
7929;SDS011;4010;42.698;23.124;2023-07-29T09:14:10;2.90;;;1.67;;
7929;SDS011;4010;42.698;23.124;2023-07-29T09:16:38;5.07;;;2.07;;
7929;SDS011;4010;42.698;23.124;2023-07-29T09:19:05;2.10;;;1.50;;
7929;SDS011;4010;42.698;23.124;2023-07-29T09:21:31;1.60;;;1.50;;
7929;SDS011;4010;42.698;23.124;2023-07-29T09:24:02;1.77;;;1.60;;
7929;SDS011;4010;42.698;23.124;2023-07-29T09:26:30;1.53;;;1.43;;
7929;SDS011;4010;42.698;23.124;2023-07-29T09:28:58;3.13;;;1.80;;
7929;SDS011;4010;42.698;23.124;2023-07-29T09:31:26;3.90;;;2.10;;
7929;SDS011;4010;42.698;23.124;2023-07-29T09:33:55;2.93;;;2.00;;
7929;SDS011;4010;42.698;23.124;2023-07-29T09:36:23;3.47;;;1.97;;
7929;SDS011;4010;42.698;23.124;2023-07-29T09:38:52;2.50;;;1.90;;
7929;SDS011;4010;42.698;23.124;2023-07-29T09:41:22;3.67;;;1.90;;
7929;SDS011;4010;42.698;23.124;2023-07-29T09:43:53;1.97;;;1.83;;
7929;SDS011;4010;42.698;23.124;2023-07-29T09:46:23;2.90;;;1.37;;
7929;SDS011;4010;42.698;23.124;2023-07-29T09:48:52;1.70;;;1.60;;
7929;SDS011;4010;42.698;23.124;2023-07-29T09:51:19;1.90;;;1.70;;
7929;SDS011;4010;42.698;23.124;2023-07-29T09:53:46;3.37;;;1.67;;
7929;SDS011;4010;42.698;23.124;2023-07-29T09:56:14;3.37;;;2.03;;
7929;SDS011;4010;42.698;23.124;2023-07-29T09:58:43;3.33;;;1.77;;
7929;SDS011;4010;42.698;23.124;2023-07-29T10:01:10;3.43;;;1.67;;
7929;SDS011;4010;42.698;23.124;2023-07-29T10:03:37;2.67;;;1.70;;
7929;SDS011;4010;42.698;23.124;2023-07-29T10:06:04;3.80;;;1.80;;
7929;SDS011;4010;42.698;23.124;2023-07-29T10:08:32;5.90;;;2.00;;
7929;SDS011;4010;42.698;23.124;2023-07-29T10:11:03;2.60;;;1.60;;
7929;SDS011;4010;42.698;23.124;2023-07-29T10:13:32;3.53;;;1.97;;
7929;SDS011;4010;42.698;23.124;2023-07-29T10:16:01;2.80;;;1.40;;
7929;SDS011;4010;42.698;23.124;2023-07-29T10:18:29;3.90;;;1.30;;
7929;SDS011;4010;42.698;23.124;2023-07-29T10:20:57;2.17;;;1.67;;
7929;SDS011;4010;42.698;23.124;2023-07-29T10:23:25;2.40;;;1.60;;
7929;SDS011;4010;42.698;23.124;2023-07-29T10:25:54;1.30;;;1.23;;
7929;SDS011;4010;42.698;23.124;2023-07-29T10:28:25;2.10;;;1.67;;
7929;SDS011;4010;42.698;23.124;2023-07-29T10:30:52;2.40;;;1.50;;
7929;SDS011;4010;42.698;23.124;2023-07-29T10:33:22;1.50;;;1.40;;
7929;SDS011;4010;42.698;23.124;2023-07-29T10:35:48;2.37;;;1.77;;
7929;SDS011;4010;42.698;23.124;2023-07-29T10:38:16;3.37;;;1.33;;
7929;SDS011;4010;42.698;23.124;2023-07-29T10:40:44;2.53;;;1.50;;
7929;SDS011;4010;42.698;23.124;2023-07-29T10:43:12;1.47;;;1.37;;
7929;SDS011;4010;42.698;23.124;2023-07-29T10:45:44;1.40;;;1.30;;
7929;SDS011;4010;42.698;23.124;2023-07-29T10:48:11;1.13;;;1.10;;
7929;SDS011;4010;42.698;23.124;2023-07-29T10:50:40;2.30;;;1.30;;
7929;SDS011;4010;42.698;23.124;2023-07-29T10:53:07;1.60;;;1.50;;
7929;SDS011;4010;42.698;23.124;2023-07-29T10:55:34;1.47;;;1.23;;
7929;SDS011;4010;42.698;23.124;2023-07-29T10:58:10;2.60;;;1.20;;
7929;SDS011;4010;42.698;23.124;2023-07-29T11:00:41;1.53;;;1.23;;
7929;SDS011;4010;42.698;23.124;2023-07-29T11:03:09;1.60;;;1.20;;
7929;SDS011;4010;42.698;23.124;2023-07-29T11:05:44;3.23;;;1.33;;
7929;SDS011;4010;42.698;23.124;2023-07-29T11:08:20;1.20;;;1.20;;
7929;SDS011;4010;42.698;23.124;2023-07-29T11:10:58;1.87;;;1.10;;
7929;SDS011;4010;42.698;23.124;2023-07-29T11:13:28;1.80;;;1.10;;
7929;SDS011;4010;42.698;23.124;2023-07-29T11:15:56;1.80;;;1.37;;
7929;SDS011;4010;42.698;23.124;2023-07-29T11:18:25;1.40;;;1.30;;
7929;SDS011;4010;42.698;23.124;2023-07-29T11:20:55;1.60;;;1.33;;
7929;SDS011;4010;42.698;23.124;2023-07-29T11:23:27;1.67;;;1.30;;
7929;SDS011;4010;42.698;23.124;2023-07-29T11:25:55;1.40;;;1.30;;
7929;SDS011;4010;42.698;23.124;2023-07-29T11:28:23;2.23;;;1.30;;
7929;SDS011;4010;42.698;23.124;2023-07-29T11:30:50;1.47;;;1.37;;
7929;SDS011;4010;42.698;23.124;2023-07-29T11:33:17;1.77;;;1.67;;
7929;SDS011;4010;42.698;23.124;2023-07-29T11:35:45;1.40;;;1.20;;
7929;SDS011;4010;42.698;23.124;2023-07-29T11:38:15;1.40;;;1.30;;
7929;SDS011;4010;42.698;23.124;2023-07-29T11:40:43;3.27;;;1.40;;
7929;SDS011;4010;42.698;23.124;2023-07-29T11:43:19;1.67;;;1.57;;
7929;SDS011;4010;42.698;23.124;2023-07-29T11:45:46;1.77;;;1.30;;
7929;SDS011;4010;42.698;23.124;2023-07-29T11:48:12;3.43;;;1.20;;
7929;SDS011;4010;42.698;23.124;2023-07-29T11:50:39;2.43;;;1.43;;
7929;SDS011;4010;42.698;23.124;2023-07-29T11:53:06;3.43;;;1.53;;
7929;SDS011;4010;42.698;23.124;2023-07-29T11:55:34;1.73;;;1.40;;
7929;SDS011;4010;42.698;23.124;2023-07-29T11:58:01;4.03;;;1.50;;
7929;SDS011;4010;42.698;23.124;2023-07-29T12:00:27;1.77;;;1.67;;
7929;SDS011;4010;42.698;23.124;2023-07-29T12:02:54;1.60;;;1.50;;
7929;SDS011;4010;42.698;23.124;2023-07-29T12:05:22;1.60;;;1.50;;
7929;SDS011;4010;42.698;23.124;2023-07-29T12:07:50;1.57;;;1.30;;
7929;SDS011;4010;42.698;23.124;2023-07-29T12:10:16;1.50;;;1.40;;
7929;SDS011;4010;42.698;23.124;2023-07-29T12:12:45;1.60;;;1.50;;
7929;SDS011;4010;42.698;23.124;2023-07-29T12:15:13;1.37;;;1.30;;
7929;SDS011;4010;42.698;23.124;2023-07-29T12:17:40;4.80;;;1.40;;
7929;SDS011;4010;42.698;23.124;2023-07-29T12:20:08;1.57;;;1.47;;
7929;SDS011;4010;42.698;23.124;2023-07-29T12:22:35;2.93;;;1.70;;
7929;SDS011;4010;42.698;23.124;2023-07-29T12:25:02;1.33;;;1.23;;
7929;SDS011;4010;42.698;23.124;2023-07-29T12:27:30;1.67;;;1.57;;
7929;SDS011;4010;42.698;23.124;2023-07-29T12:29:58;1.50;;;1.40;;
7929;SDS011;4010;42.698;23.124;2023-07-29T12:32:29;1.50;;;1.40;;
7929;SDS011;4010;42.698;23.124;2023-07-29T12:34:55;1.60;;;1.50;;
7929;SDS011;4010;42.698;23.124;2023-07-29T12:37:30;1.60;;;1.50;;
7929;SDS011;4010;42.698;23.124;2023-07-29T12:39:58;1.60;;;1.50;;
7929;SDS011;4010;42.698;23.124;2023-07-29T12:42:25;1.73;;;1.63;;
7929;SDS011;4010;42.698;23.124;2023-07-29T12:44:51;3.97;;;1.60;;
7929;SDS011;4010;42.698;23.124;2023-07-29T12:47:19;3.33;;;1.60;;
7929;SDS011;4010;42.698;23.124;2023-07-29T12:49:46;1.63;;;1.53;;
7929;SDS011;4010;42.698;23.124;2023-07-29T12:52:13;2.43;;;1.87;;
7929;SDS011;4010;42.698;23.124;2023-07-29T12:54:40;2.20;;;1.57;;
7929;SDS011;4010;42.698;23.124;2023-07-29T12:57:09;2.00;;;1.80;;
7929;SDS011;4010;42.698;23.124;2023-07-29T12:59:36;2.00;;;1.80;;
7929;SDS011;4010;42.698;23.124;2023-07-29T13:02:02;1.73;;;1.63;;
7929;SDS011;4010;42.698;23.124;2023-07-29T13:04:30;3.70;;;1.60;;
7929;SDS011;4010;42.698;23.124;2023-07-29T13:06:57;3.37;;;1.80;;
7929;SDS011;4010;42.698;23.124;2023-07-29T13:09:24;3.73;;;2.17;;
7929;SDS011;4010;42.698;23.124;2023-07-29T13:11:51;1.70;;;1.60;;
7929;SDS011;4010;42.698;23.124;2023-07-29T13:14:17;2.40;;;1.80;;
7929;SDS011;4010;42.698;23.124;2023-07-29T13:16:44;1.70;;;1.60;;
7929;SDS011;4010;42.698;23.124;2023-07-29T13:19:11;1.90;;;1.77;;
7929;SDS011;4010;42.698;23.124;2023-07-29T13:21:39;1.93;;;1.70;;
7929;SDS011;4010;42.698;23.124;2023-07-29T13:24:05;2.20;;;2.00;;
7929;SDS011;4010;42.698;23.124;2023-07-29T13:26:32;2.40;;;2.20;;
7929;SDS011;4010;42.698;23.124;2023-07-29T13:28:59;2.20;;;2.00;;
7929;SDS011;4010;42.698;23.124;2023-07-29T13:31:25;2.30;;;2.10;;
7929;SDS011;4010;42.698;23.124;2023-07-29T13:33:52;2.30;;;2.10;;
7929;SDS011;4010;42.698;23.124;2023-07-29T13:36:18;2.67;;;1.97;;
7929;SDS011;4010;42.698;23.124;2023-07-29T13:38:46;3.10;;;2.43;;
7929;SDS011;4010;42.698;23.124;2023-07-29T13:41:13;3.27;;;2.97;;
7929;SDS011;4010;42.698;23.124;2023-07-29T13:43:40;2.53;;;2.30;;
7929;SDS011;4010;42.698;23.124;2023-07-29T13:46:07;4.40;;;3.27;;
7929;SDS011;4010;42.698;23.124;2023-07-29T13:48:33;3.00;;;2.70;;
7929;SDS011;4010;42.698;23.124;2023-07-29T13:51:00;2.87;;;2.60;;
7929;SDS011;4010;42.698;23.124;2023-07-29T13:53:27;2.37;;;2.17;;
7929;SDS011;4010;42.698;23.124;2023-07-29T13:55:55;2.00;;;1.90;;
7929;SDS011;4010;42.698;23.124;2023-07-29T13:58:22;2.37;;;2.17;;
7929;SDS011;4010;42.698;23.124;2023-07-29T14:00:48;2.97;;;2.77;;
7929;SDS011;4010;42.698;23.124;2023-07-29T14:03:15;2.40;;;2.20;;
7929;SDS011;4010;42.698;23.124;2023-07-29T14:05:42;2.40;;;2.20;;
7929;SDS011;4010;42.698;23.124;2023-07-29T14:08:08;2.70;;;2.50;;
7929;SDS011;4010;42.698;23.124;2023-07-29T14:10:35;2.67;;;2.47;;
7929;SDS011;4010;42.698;23.124;2023-07-29T14:13:03;2.50;;;2.30;;
7929;SDS011;4010;42.698;23.124;2023-07-29T14:15:29;2.40;;;2.30;;
7929;SDS011;4010;42.698;23.124;2023-07-29T14:17:57;2.70;;;2.50;;
7929;SDS011;4010;42.698;23.124;2023-07-29T14:20:24;2.80;;;2.60;;
7929;SDS011;4010;42.698;23.124;2023-07-29T14:22:51;2.87;;;2.20;;
7929;SDS011;4010;42.698;23.124;2023-07-29T14:25:18;3.27;;;2.20;;
7929;SDS011;4010;42.698;23.124;2023-07-29T14:27:44;6.07;;;2.50;;
7929;SDS011;4010;42.698;23.124;2023-07-29T14:30:12;4.17;;;2.10;;
7929;SDS011;4010;42.698;23.124;2023-07-29T14:32:39;2.17;;;1.90;;
7929;SDS011;4010;42.698;23.124;2023-07-29T14:35:06;2.00;;;1.80;;
7929;SDS011;4010;42.698;23.124;2023-07-29T14:37:33;4.17;;;2.10;;
7929;SDS011;4010;42.698;23.124;2023-07-29T14:40:00;4.37;;;2.30;;
7929;SDS011;4010;42.698;23.124;2023-07-29T14:42:28;2.40;;;2.17;;
7929;SDS011;4010;42.698;23.124;2023-07-29T14:44:54;5.90;;;2.40;;
7929;SDS011;4010;42.698;23.124;2023-07-29T14:47:22;2.47;;;2.27;;
7929;SDS011;4010;42.698;23.124;2023-07-29T14:49:49;2.73;;;2.17;;
7929;SDS011;4010;42.698;23.124;2023-07-29T14:52:16;2.03;;;1.93;;
7929;SDS011;4010;42.698;23.124;2023-07-29T14:54:42;2.50;;;2.20;;
7929;SDS011;4010;42.698;23.124;2023-07-29T14:57:09;2.77;;;2.20;;
7929;SDS011;4010;42.698;23.124;2023-07-29T14:59:36;2.40;;;2.20;;
7929;SDS011;4010;42.698;23.124;2023-07-29T15:02:03;2.40;;;2.20;;